Pagrindinis puslapis
METAR-TAF:

METAR-TAF

Oro uostai :

Tarava, Kiribatis

platuma: 01-21N, ilguma: 172-55E, Aukštis: 2 m

Dabartinis oras

Ataskaita buvo paskelbta 56 minutes, ne 17:00 UTC
Vėjas 2 kt nuo kintamojo kryptimis
Temperatūra 24°C
Drėgmė 94%
Slėgis 1008 hPa
Matomumas 10 km arba daugiau
Mažai debesys ne aukštis 2000 ft

METAR: NGTA 091700Z VRB02KT 9999 FEW020 24/23 Q1008

Laikas: 07:56 (17:56 UTC)

Prognozė

Ataskaita buvo paskelbta 45 minutes, ne 17:11 UTC
Prognozė galioja nuo 09 metu 18 UTC su 10 metu 18 UTC
Vėjas 7 kt iš Pietų/Pietvakarių
Matomumas 10 km arba daugiau
Išsisklaidę debesys ne aukštis 1800 ft

TAF: NGTA 091711Z 0918/1018 21007KT 9999 SCT018

Orai ataskaitas ir orų prognozės (METAR, TAF).

turimą stotys yra geltonos ir raudonos taškus žemėlapyje.

Perkelti pele per norėdami pamatyti stoties vardą.

Tada spustelėkite, norėdami matyti oro stebėjimo ir prognozės.

Norėdami pakeisti žemėlapį: spustelėkite ant žalios mygtukų su juodo kryžiaus žemyn,; žalią mygtuką su brūkšneliu, jei norite nutolinti; arba žalių rodyklių gretimoms žemėlapius.


METAR-TAF: